Time;durP1;ratioP1;P1;durP2;ratioP2;P2;SDS_P1;SDS_P2;PMS_P1;PMS_P2;Temp;Humidity;BMP_temperature;BMP_pressure;BME280_temperature;BME280_humidity;BME280_pressure;Samples;Min_cycle;Max_cycle;Signal;HPM_P1;HPM_P2
2021/03/10 00:00:19;;;;;;;18.47;8.77;;;1.00;67.40;;;;;;4156547;28;20282;-63
2021/03/10 00:02:20;;;;;;;22.07;8.67;;;0.90;67.20;;;;;;4158621;28;20333;-63
2021/03/10 00:04:21;;;;;;;18.13;9.40;;;1.00;67.30;;;;;;4156612;28;20869;-63
2021/03/10 00:06:22;;;;;;;18.87;8.83;;;0.90;67.40;;;;;;4158220;28;20286;-64
2021/03/10 00:08:26;;;;;;;15.97;8.17;;;0.90;67.40;;;;;;4156721;28;20270;-63
2021/03/10 00:10:27;;;;;;;17.07;7.77;;;0.90;67.30;;;;;;4157364;28;20633;-63
2021/03/10 00:12:28;;;;;;;16.83;7.87;;;0.80;67.20;;;;;;4157513;28;20267;-62
2021/03/10 00:14:29;;;;;;;16.23;8.10;;;0.80;67.20;;;;;;4157232;28;20289;-61
2021/03/10 00:16:30;;;;;;;18.47;8.60;;;0.80;67.20;;;;;;4157872;28;20274;-62
2021/03/10 00:18:31;;;;;;;19.13;8.40;;;0.70;67.20;;;;;;4157147;28;20254;-63
2021/03/10 00:20:33;;;;;;;16.27;9.00;;;0.60;67.30;;;;;;4158135;28;20275;-62
2021/03/10 00:22:34;;;;;;;17.10;8.50;;;0.60;68.10;;;;;;4156660;28;20333;-63
2021/03/10 00:24:35;;;;;;;18.57;8.33;;;0.60;67.70;;;;;;4157718;28;20274;-62
2021/03/10 00:26:37;;;;;;;21.87;9.50;;;0.50;67.90;;;;;;4155941;28;20333;-62
2021/03/10 00:28:38;;;;;;;20.07;8.40;;;0.50;68.00;;;;;;4157756;28;20262;-62
2021/03/10 00:30:39;;;;;;;18.20;8.43;;;0.30;68.20;;;;;;4156343;28;20384;-62
2021/03/10 00:32:40;;;;;;;17.50;9.07;;;0.30;68.30;;;;;;4157857;28;20274;-64
2021/03/10 00:34:41;;;;;;;17.83;8.37;;;0.30;68.50;;;;;;4156320;28;20275;-63
2021/03/10 00:36:42;;;;;;;19.60;8.73;;;0.20;68.50;;;;;;4157893;28;20274;-63
2021/03/10 00:38:43;;;;;;;18.43;8.70;;;0.10;68.90;;;;;;4156522;28;20259;-62
2021/03/10 00:40:44;;;;;;;19.93;8.87;;;0.10;69.00;;;;;;4156986;28;20275;-63
2021/03/10 00:42:45;;;;;;;15.63;8.07;;;0.00;69.10;;;;;;4157384;28;20297;-63
2021/03/10 00:44:47;;;;;;;19.13;8.67;;;0.00;69.30;;;;;;4155512;28;20662;-62
2021/03/10 00:46:48;;;;;;;15.77;8.33;;;0.00;69.50;;;;;;4157595;28;20275;-63
2021/03/10 00:48:49;;;;;;;16.20;8.30;;;-0.10;69.50;;;;;;4156347;28;20747;-63
2021/03/10 00:50:50;;;;;;;19.53;7.40;;;-0.10;69.60;;;;;;4157806;28;20320;-63
2021/03/10 00:52:51;;;;;;;18.20;8.40;;;-0.20;69.60;;;;;;4156734;28;20670;-63
2021/03/10 00:54:52;;;;;;;16.03;7.27;;;-0.20;69.80;;;;;;4157206;28;20828;-63
2021/03/10 00:56:53;;;;;;;15.30;7.90;;;-0.30;70.10;;;;;;4156541;28;20304;-62
2021/03/10 00:58:55;;;;;;;16.67;7.97;;;-0.30;70.10;;;;;;4157709;28;20328;-62
2021/03/10 01:00:56;;;;;;;16.87;8.17;;;-0.40;70.30;;;;;;4156150;28;20263;-63
2021/03/10 01:02:57;;;;;;;16.07;8.20;;;-0.50;70.20;;;;;;4157575;28;20312;-63
2021/03/10 01:04:58;;;;;;;18.43;7.93;;;-0.50;70.60;;;;;;4156449;28;20262;-63
2021/03/10 01:07:00;;;;;;;15.70;7.83;;;-0.50;70.70;;;;;;4157706;28;20279;-62
2021/03/10 01:09:05;;;;;;;17.17;7.73;;;-0.60;71.00;;;;;;4155017;28;20636;-63
2021/03/10 01:11:06;;;;;;;19.17;8.53;;;-0.70;71.00;;;;;;4157215;28;20694;-63
2021/03/10 01:13:08;;;;;;;17.67;9.03;;;-0.70;71.20;;;;;;4156395;28;20697;-64
2021/03/10 01:15:20;;;;;;;20.17;8.77;;;-0.70;71.30;;;;;;4156638;28;20267;-62
2021/03/10 01:17:21;;;;;;;19.77;10.00;;;-0.70;71.60;;;;;;4153297;28;20612;-64
2021/03/10 01:19:22;;;;;;;15.83;8.90;;;-0.70;72.70;;;;;;4155578;28;20336;-62
2021/03/10 01:21:24;;;;;;;15.57;8.70;;;-0.80;71.90;;;;;;4157049;28;20279;-62
2021/03/10 01:23:25;;;;;;;18.27;8.17;;;-0.80;71.80;;;;;;4155819;28;20289;-62
2021/03/10 01:25:27;;;;;;;24.67;9.03;;;-0.80;72.00;;;;;;4156657;28;20364;-63
2021/03/10 01:27:28;;;;;;;18.17;9.10;;;-0.80;72.10;;;;;;4155436;28;20755;-64
2021/03/10 01:29:29;;;;;;;23.03;9.83;;;-0.90;72.30;;;;;;4155143;28;20294;-63
2021/03/10 01:31:30;;;;;;;19.23;8.33;;;-0.90;72.30;;;;;;4156109;28;20270;-63
2021/03/10 01:33:31;;;;;;;19.57;8.53;;;-0.90;72.50;;;;;;4157536;28;20778;-64
2021/03/10 01:35:32;;;;;;;19.50;8.53;;;-0.90;72.60;;;;;;4155913;28;20784;-64
2021/03/10 01:37:34;;;;;;;17.97;8.50;;;-0.90;72.50;;;;;;4156458;28;20263;-64
2021/03/10 01:39:35;;;;;;;16.73;8.33;;;-1.00;72.70;;;;;;4155145;28;20662;-63
2021/03/10 01:41:37;;;;;;;15.13;8.83;;;-0.90;72.60;;;;;;4157038;28;20726;-63
2021/03/10 01:43:38;;;;;;;23.83;9.67;;;-1.00;72.70;;;;;;4155724;28;20317;-63
2021/03/10 01:45:40;;;;;;;16.87;8.67;;;-1.00;72.70;;;;;;4156259;28;20262;-63
2021/03/10 01:47:44;;;;;;;21.67;8.87;;;-1.00;72.90;;;;;;4154882;28;20341;-64
2021/03/10 01:49:45;;;;;;;25.20;9.17;;;-1.10;72.80;;;;;;4155677;28;20321;-63
2021/03/10 01:51:46;;;;;;;19.90;9.57;;;-1.10;73.20;;;;;;4156415;28;20757;-63
2021/03/10 01:53:47;;;;;;;22.40;8.70;;;-1.10;73.40;;;;;;4155508;28;20313;-64
2021/03/10 01:55:50;;;;;;;22.43;9.30;;;-1.20;73.60;;;;;;4156831;28;20717;-64
2021/03/10 01:57:51;;;;;;;20.30;9.40;;;-1.20;73.60;;;;;;4154779;28;20259;-64
2021/03/10 01:59:53;;;;;;;17.53;9.43;;;-1.20;73.90;;;;;;4156724;28;20282;-63
2021/03/10 02:01:54;;;;;;;19.57;9.10;;;-1.20;73.70;;;;;;4155520;28;20320;-63
2021/03/10 02:03:55;;;;;;;17.57;9.67;;;-1.20;73.90;;;;;;4156491;28;20336;-63
2021/03/10 02:05:56;;;;;;;19.50;8.87;;;-1.20;74.20;;;;;;4155268;28;21147;-64
2021/03/10 02:08:09;;;;;;;22.77;9.27;;;-1.30;74.20;;;;;;4156648;28;20279;-63
2021/03/10 02:10:19;;;;;;;19.50;9.37;;;-1.30;74.20;;;;;;4155000;28;20294;-62
2021/03/10 02:12:56;;;;;;;18.47;8.80;;;-1.30;74.20;;;;;;4157007;28;20270;-64
2021/03/10 02:15:08;;;;;;;18.83;9.13;;;-1.30;74.70;;;;;;4123755;28;20270;-64
2021/03/10 02:17:15;;;;;;;20.23;8.73;;;-1.30;74.50;;;;;;4156111;28;20286;-63
2021/03/10 02:19:58;;;;;;;17.77;8.07;;;-1.30;74.50;;;;;;4155750;28;20836;-64
2021/03/10 02:22:07;;;;;;;20.17;8.15;;;-1.40;74.70;;;;;;4156567;28;21000;-63
2021/03/10 02:24:24;;;;;;;25.83;9.73;;;-1.40;74.80;;;;;;4155225;28;20045;-64
2021/03/10 02:26:42;;;;;;;21.97;7.80;;;-1.40;75.00;;;;;;4155674;28;20743;-63
2021/03/10 02:28:46;;;;;;;19.10;9.18;;;-1.40;75.10;;;;;;4155224;28;20310;-63
2021/03/10 02:30:51;;;;;;;19.27;8.27;;;-1.40;75.50;;;;;;4138266;28;20045;-63
2021/03/10 02:33:11;;;;;;;19.30;9.23;;;-1.50;75.50;;;;;;4155037;28;20281;-63
2021/03/10 02:35:13;;;;;;;19.17;9.83;;;-1.50;76.30;;;;;;4156177;28;20092;-64
2021/03/10 02:37:15;;;;;;;20.73;9.88;;;-1.60;76.00;;;;;;4155604;28;20263;-64
2021/03/10 02:39:18;;;;;;;20.25;9.32;;;-1.60;76.30;;;;;;4156266;28;20026;-64
2021/03/10 02:41:20;;;;;;;19.23;10.27;;;-1.60;76.40;;;;;;4154963;28;21040;-63
2021/03/10 02:43:23;;;;;;;21.83;9.55;;;-1.70;76.80;;;;;;4155985;28;20482;-64
2021/03/10 02:45:26;;;;;;;21.77;9.45;;;-1.70;77.10;;;;;;4154836;28;20680;-63
2021/03/10 02:47:28;;;;;;;23.93;9.83;;;-1.70;77.20;;;;;;4155878;28;20041;-63
2021/03/10 02:49:30;;;;;;;19.58;8.93;;;-1.70;77.50;;;;;;4156811;28;20337;-63
2021/03/10 02:51:33;;;;;;;18.58;9.15;;;-1.70;78.40;;;;;;4159795;28;20056;-63
2021/03/10 02:53:39;;;;;;;18.17;9.48;;;-1.80;78.70;;;;;;4158430;28;20021;-64
2021/03/10 02:55:41;;;;;;;25.05;9.43;;;-1.80;79.20;;;;;;4141576;28;20038;-61
2021/03/10 02:57:43;;;;;;;19.67;9.30;;;-1.80;79.60;;;;;;4157822;28;20111;-63
2021/03/10 02:59:49;;;;;;;17.85;9.45;;;-1.80;79.00;;;;;;4159213;28;20108;-63
2021/03/10 03:01:51;;;;;;;24.52;9.15;;;-1.80;78.90;;;;;;4157097;28;20037;-63
2021/03/10 03:03:52;;;;;;;18.70;8.63;;;-1.80;78.80;;;;;;4158314;28;20034;-63
2021/03/10 03:05:53;;;;;;;19.88;9.35;;;-1.80;78.70;;;;;;4158062;28;20432;-64
2021/03/10 03:07:54;;;;;;;23.48;10.63;;;-1.80;79.00;;;;;;4159252;28;20087;-62
2021/03/10 03:09:56;;;;;;;19.45;9.70;;;-1.80;79.00;;;;;;4157722;28;20045;-64
2021/03/10 03:11:57;;;;;;;23.77;10.52;;;-1.80;79.60;;;;;;4158153;28;20129;-63
2021/03/10 03:14:02;;;;;;;19.88;10.15;;;-1.80;79.70;;;;;;4158826;28;20041;-63
2021/03/10 03:16:04;;;;;;;21.25;10.40;;;-1.80;79.80;;;;;;4158190;28;20033;-63
2021/03/10 03:18:05;;;;;;;22.88;10.32;;;-1.90;80.10;;;;;;4141348;28;20037;-63
2021/03/10 03:20:07;;;;;;;26.88;9.80;;;-1.90;80.60;;;;;;4156916;28;20510;-64
2021/03/10 03:22:09;;;;;;;22.80;9.85;;;-1.90;81.30;;;;;;4159001;28;20037;-62
2021/03/10 03:24:11;;;;;;;21.95;9.73;;;-1.90;81.10;;;;;;4157825;28;20029;-63
2021/03/10 03:26:16;;;;;;;21.37;9.80;;;-1.90;81.40;;;;;;4159073;28;20025;-63
2021/03/10 03:28:23;;;;;;;22.23;10.13;;;-1.90;81.60;;;;;;4156431;28;20263;-62
2021/03/10 03:30:25;;;;;;;18.80;8.73;;;-1.90;81.20;;;;;;4155382;28;20103;-63
2021/03/10 03:32:31;;;;;;;23.88;9.98;;;-1.90;82.10;;;;;;4157459;28;20809;-64
2021/03/10 03:34:32;;;;;;;20.85;9.63;;;-2.00;81.70;;;;;;4158746;28;20103;-64
2021/03/10 03:36:36;;;;;;;21.77;9.32;;;-1.90;82.10;;;;;;4156823;28;20522;-63
2021/03/10 03:38:38;;;;;;;21.98;10.30;;;-1.90;81.80;;;;;;4158013;28;20095;-64
2021/03/10 03:40:40;;;;;;;21.45;9.55;;;-1.90;81.90;;;;;;4156653;28;20033;-64
2021/03/10 03:42:41;;;;;;;19.13;8.95;;;-1.90;82.30;;;;;;4159115;28;20041;-63
2021/03/10 03:44:42;;;;;;;19.58;9.00;;;-1.90;82.30;;;;;;4157326;28;20845;-63
2021/03/10 03:46:44;;;;;;;19.60;9.45;;;-1.90;82.30;;;;;;4157853;28;20083;-63
2021/03/10 03:48:45;;;;;;;19.38;9.38;;;-1.90;82.30;;;;;;4157444;28;20037;-63
2021/03/10 03:50:47;;;;;;;21.15;9.27;;;-1.90;82.60;;;;;;4157308;28;20053;-64
2021/03/10 03:52:49;;;;;;;18.65;9.23;;;-1.90;82.50;;;;;;4158471;28;20517;-63
2021/03/10 03:54:50;;;;;;;29.40;9.97;;;-1.90;82.90;;;;;;4157010;28;20029;-63
2021/03/10 03:56:51;;;;;;;22.83;8.97;;;-1.90;83.00;;;;;;4158279;28;20765;-62
2021/03/10 03:58:53;;;;;;;24.27;9.80;;;-1.90;82.90;;;;;;4156671;28;20628;-63
2021/03/10 04:00:54;;;;;;;22.92;9.63;;;-1.90;82.90;;;;;;4157696;28;20320;-62
2021/03/10 04:02:55;;;;;;;21.15;9.20;;;-1.90;83.10;;;;;;4156801;28;20033;-63
2021/03/10 04:04:56;;;;;;;19.77;9.48;;;-1.90;83.50;;;;;;4157613;28;20099;-62
2021/03/10 04:06:59;;;;;;;20.27;9.80;;;-1.90;83.60;;;;;;4157140;28;20054;-63
2021/03/10 04:09:00;;;;;;;18.48;8.90;;;-1.90;83.80;;;;;;4158571;28;20079;-63
2021/03/10 04:11:01;;;;;;;18.90;9.00;;;-2.00;83.70;;;;;;4155542;28;20506;-63
2021/03/10 04:13:03;;;;;;;23.92;10.20;;;-2.00;83.90;;;;;;4158726;28;20034;-62
2021/03/10 04:15:05;;;;;;;27.25;10.32;;;-2.00;84.20;;;;;;4156822;28;20029;-63
2021/03/10 04:17:06;;;;;;;21.77;10.10;;;-2.10;84.80;;;;;;4157879;28;20029;-63
2021/03/10 04:19:08;;;;;;;19.73;10.68;;;-2.10;84.80;;;;;;4156848;28;20465;-63
2021/03/10 04:21:09;;;;;;;25.48;9.73;;;-2.10;84.90;;;;;;4157313;28;20413;-63
2021/03/10 04:23:10;;;;;;;24.73;10.23;;;-2.10;85.40;;;;;;4157888;28;20025;-64
2021/03/10 04:25:12;;;;;;;28.23;10.75;;;-2.20;85.30;;;;;;4156671;28;20911;-64
2021/03/10 04:27:15;;;;;;;24.25;10.13;;;-2.20;85.80;;;;;;4157921;28;20088;-64
2021/03/10 04:29:16;;;;;;;19.23;9.57;;;-2.20;85.90;;;;;;4156094;28;20033;-64
2021/03/10 04:31:17;;;;;;;24.98;10.30;;;-2.20;86.00;;;;;;4157705;28;20045;-65
2021/03/10 04:33:18;;;;;;;25.17;10.15;;;-2.30;86.00;;;;;;4156469;28;20022;-64
2021/03/10 04:35:21;;;;;;;22.55;9.43;;;-2.30;86.00;;;;;;4157601;28;20067;-63
2021/03/10 04:37:23;;;;;;;23.27;9.35;;;-2.30;86.30;;;;;;4156702;28;20029;-63
2021/03/10 04:39:24;;;;;;;20.77;9.30;;;-2.30;86.20;;;;;;4157970;28;20087;-64
2021/03/10 04:41:25;;;;;;;22.00;9.70;;;-2.30;86.60;;;;;;4155322;28;20038;-64
2021/03/10 04:43:27;;;;;;;18.20;9.60;;;-2.30;86.80;;;;;;4157709;28;20091;-62
2021/03/10 04:45:28;;;;;;;18.42;9.32;;;-2.30;86.90;;;;;;4156203;28;20064;-63
2021/03/10 04:47:29;;;;;;;23.58;9.80;;;-2.30;87.20;;;;;;4157367;28;20885;-64
2021/03/10 04:49:30;;;;;;;22.30;9.30;;;-2.30;87.20;;;;;;4155983;28;20041;-64
2021/03/10 04:51:31;;;;;;;22.33;10.38;;;-2.30;87.60;;;;;;4156726;28;20045;-63
2021/03/10 04:53:32;;;;;;;20.48;9.25;;;-2.40;87.50;;;;;;4156805;28;20087;-63
2021/03/10 04:55:33;;;;;;;22.52;8.38;;;-2.40;87.80;;;;;;4155961;28;20025;-62
2021/03/10 04:57:35;;;;;;;24.27;10.35;;;-2.40;87.80;;;;;;4157193;28;20037;-63
2021/03/10 04:59:36;;;;;;;24.63;9.55;;;-2.40;88.10;;;;;;4156033;28;20041;-63
2021/03/10 05:01:37;;;;;;;23.15;9.75;;;-2.40;88.50;;;;;;4152647;28;20513;-63
2021/03/10 05:03:38;;;;;;;23.15;8.98;;;-2.40;88.50;;;;;;4156062;28;20478;-64
2021/03/10 05:05:39;;;;;;;19.75;8.90;;;-2.40;89.00;;;;;;4157193;28;20091;-65
2021/03/10 05:07:40;;;;;;;19.00;9.25;;;-2.40;88.80;;;;;;4155949;28;20037;-64
2021/03/10 05:09:41;;;;;;;18.02;7.75;;;-2.40;89.10;;;;;;4155422;28;20064;-63
2021/03/10 05:11:42;;;;;;;20.02;9.55;;;-2.40;89.90;;;;;;4155081;28;20493;-64
2021/03/10 05:13:44;;;;;;;23.48;8.88;;;-2.40;90.00;;;;;;4157010;28;20051;-63
2021/03/10 05:15:45;;;;;;;22.63;9.85;;;-2.40;90.10;;;;;;4155777;28;20071;-64
2021/03/10 05:17:46;;;;;;;20.15;9.00;;;-2.40;90.10;;;;;;4157041;28;20030;-63
2021/03/10 05:19:47;;;;;;;22.80;9.07;;;-2.40;90.10;;;;;;4155545;28;20099;-64
2021/03/10 05:21:48;;;;;;;19.67;10.45;;;-2.30;90.20;;;;;;4154920;28;20041;-63
2021/03/10 05:23:49;;;;;;;23.58;8.20;;;-2.30;90.20;;;;;;4156127;28;20029;-63
2021/03/10 05:25:50;;;;;;;21.83;9.63;;;-2.20;90.10;;;;;;4155676;28;20056;-65
2021/03/10 05:27:51;;;;;;;25.85;10.13;;;-2.20;90.00;;;;;;4155240;28;20041;-63
2021/03/10 05:29:53;;;;;;;23.85;10.25;;;-2.20;90.10;;;;;;4165404;28;20106;-64
2021/03/10 05:31:54;;;;;;;28.48;10.90;;;-2.10;90.20;;;;;;4156581;28;20033;-63
2021/03/10 05:33:55;;;;;;;21.35;10.48;;;-2.10;90.00;;;;;;4155117;28;20033;-65
2021/03/10 05:35:56;;;;;;;26.23;10.82;;;-2.10;89.80;;;;;;4156372;28;20083;-62
2021/03/10 05:37:57;;;;;;;22.65;10.40;;;-2.10;89.80;;;;;;4154964;28;20682;-65
2021/03/10 05:39:58;;;;;;;20.08;9.27;;;-2.10;89.80;;;;;;4156600;28;20052;-63
2021/03/10 05:42:00;;;;;;;23.08;10.77;;;-2.10;89.80;;;;;;4154819;28;20034;-63
2021/03/10 05:44:01;;;;;;;21.35;10.20;;;-2.10;89.60;;;;;;4156851;28;20527;-62
2021/03/10 05:46:02;;;;;;;29.30;11.15;;;-2.10;89.80;;;;;;4154237;28;20041;-62
2021/03/10 05:48:05;;;;;;;23.50;11.07;;;-2.00;90.00;;;;;;4154669;28;20478;-63
2021/03/10 05:50:07;;;;;;;28.08;11.18;;;-2.00;89.60;;;;;;4137076;28;20119;-60
2021/03/10 05:52:10;;;;;;;27.77;11.80;;;-1.90;90.00;;;;;;4155571;28;20091;-62
2021/03/10 05:54:13;;;;;;;28.35;11.45;;;-1.90;90.00;;;;;;4155898;28;20075;-64
2021/03/10 05:56:15;;;;;;;38.97;13.38;;;-1.90;90.20;;;;;;4154939;28;20021;-61
2021/03/10 05:58:16;;;;;;;29.40;12.85;;;-1.90;90.00;;;;;;4155683;28;20041;-63
2021/03/10 06:00:18;;;;;;;32.17;13.15;;;-1.90;90.10;;;;;;4155421;28;20484;-61
2021/03/10 06:02:19;;;;;;;34.83;14.27;;;-1.90;90.00;;;;;;4156344;28;20474;-62
2021/03/10 06:04:20;;;;;;;35.42;13.88;;;-1.90;90.00;;;;;;4155278;28;20040;-63
2021/03/10 06:06:22;;;;;;;36.05;13.98;;;-1.80;90.00;;;;;;4156786;28;20045;-63
2021/03/10 06:08:27;;;;;;;38.72;14.18;;;-1.80;89.60;;;;;;4155328;28;20482;-66
2021/03/10 06:10:57;;;;;;;36.65;14.55;;;-1.70;89.50;;;;;;4155734;28;20053;-62
2021/03/10 06:12:59;;;;;;;44.90;15.80;;;-1.70;90.00;;;;;;4141423;28;20107;-62
2021/03/10 06:15:00;;;;;;;33.17;15.00;;;-1.70;90.10;;;;;;4156566;28;20037;-61
2021/03/10 06:17:03;;;;;;;35.17;16.03;;;-1.60;90.10;;;;;;4137014;28;21442;-61
2021/03/10 06:19:05;;;;;;;32.80;16.05;;;-1.60;90.20;;;;;;4156056;28;20596;-61
2021/03/10 06:21:11;;;;;;;34.60;15.67;;;-1.60;89.90;;;;;;4155183;28;20412;-62
2021/03/10 06:23:17;;;;;;;41.05;20.65;;;-1.50;89.90;;;;;;4156790;28;20679;-60
2021/03/10 06:25:18;;;;;;;44.83;21.30;;;-1.40;89.80;;;;;;4158076;28;20650;-62
2021/03/10 06:27:23;;;;;;;34.93;15.47;;;-1.30;89.60;;;;;;4159609;28;20403;-63
2021/03/10 06:29:24;;;;;;;38.28;14.70;;;-1.20;89.40;;;;;;4157826;28;20662;-62
2021/03/10 06:31:31;;;;;;;62.60;23.43;;;-1.20;88.90;;;;;;4158314;28;20107;-62
2021/03/10 06:33:32;;;;;;;37.93;14.70;;;-1.10;88.50;;;;;;4157893;28;21132;-62
2021/03/10 06:35:35;;;;;;;33.77;14.13;;;-0.90;88.40;;;;;;4158783;28;20663;-62
2021/03/10 06:37:36;;;;;;;33.37;14.67;;;-0.90;87.80;;;;;;4158319;28;20297;-62
2021/03/10 06:39:37;;;;;;;43.80;16.80;;;-0.80;87.90;;;;;;4158652;28;20336;-62
2021/03/10 06:41:41;;;;;;;74.23;26.87;;;-0.70;87.60;;;;;;4158501;28;20751;-62
2021/03/10 06:43:42;;;;;;;51.27;17.90;;;-0.60;87.20;;;;;;4157251;28;20271;-66
2021/03/10 06:45:44;;;;;;;31.90;13.83;;;-0.50;86.80;;;;;;4158656;28;20759;-63
2021/03/10 06:47:45;;;;;;;74.87;27.53;;;-0.40;86.70;;;;;;4157970;28;20601;-62
2021/03/10 06:49:51;;;;;;;52.17;20.07;;;-0.30;86.40;;;;;;4158521;28;20282;-63
2021/03/10 06:51:55;;;;;;;51.17;18.47;;;-0.30;85.90;;;;;;4156878;28;20685;-63
2021/03/10 06:53:57;;;;;;;37.50;16.47;;;-0.20;85.70;;;;;;4159514;28;20296;-63
2021/03/10 06:55:58;;;;;;;50.37;18.57;;;-0.10;85.70;;;;;;4157963;28;20267;-63
2021/03/10 06:58:00;;;;;;;74.00;24.83;;;0.10;85.40;;;;;;4159023;28;20267;-62
2021/03/10 07:00:01;;;;;;;48.67;18.63;;;0.20;85.10;;;;;;4157446;28;20313;-63
2021/03/10 07:02:02;;;;;;;34.37;14.60;;;0.40;85.40;;;;;;4158936;28;20262;-62
2021/03/10 07:04:04;;;;;;;38.40;14.20;;;0.60;84.20;;;;;;4157572;28;20301;-63
2021/03/10 07:06:07;;;;;;;39.00;16.97;;;0.80;83.60;;;;;;4158486;28;20340;-63
2021/03/10 07:08:09;;;;;;;41.80;18.03;;;0.90;82.70;;;;;;4157065;28;20764;-63
2021/03/10 07:10:10;;;;;;;57.80;19.70;;;1.10;82.40;;;;;;4158551;28;20275;-63
2021/03/10 07:12:13;;;;;;;34.87;15.10;;;1.20;81.90;;;;;;4158010;28;20345;-62
2021/03/10 07:14:15;;;;;;;38.17;16.33;;;1.20;81.60;;;;;;4157495;28;20317;-63
2021/03/10 07:16:16;;;;;;;39.23;13.63;;;1.30;81.50;;;;;;4158291;28;20259;-63
2021/03/10 07:18:18;;;;;;;38.80;14.17;;;1.40;81.40;;;;;;4157204;28;20267;-62
2021/03/10 07:20:20;;;;;;;34.37;12.87;;;1.60;80.90;;;;;;4158589;28;20317;-62
2021/03/10 07:22:35;;;;;;;36.27;14.13;;;1.80;80.20;;;;;;4157477;28;20266;-63
2021/03/10 07:24:38;;;;;;;38.40;15.57;;;1.90;79.50;;;;;;4157895;28;20305;-65
2021/03/10 07:26:41;;;;;;;40.70;17.57;;;2.00;79.10;;;;;;4156646;28;20418;-62
2021/03/10 07:28:49;;;;;;;41.57;15.67;;;2.20;78.80;;;;;;4158493;28;20338;-63
2021/03/10 07:30:50;;;;;;;25.83;12.43;;;2.40;77.20;;;;;;4157212;28;21131;-64
2021/03/10 07:32:51;;;;;;;21.27;9.83;;;2.40;76.50;;;;;;4158237;28;20266;-64
2021/03/10 07:35:07;;;;;;;32.80;11.83;;;2.50;76.30;;;;;;4156523;28;20266;-65
2021/03/10 07:37:16;;;;;;;25.70;12.47;;;2.40;73.70;;;;;;4158643;28;20967;-64
2021/03/10 07:39:22;;;;;;;44.07;18.70;;;2.30;74.00;;;;;;4139229;28;20853;-63
2021/03/10 07:41:36;;;;;;;37.20;14.93;;;2.30;73.90;;;;;;4158571;28;20282;-63
2021/03/10 07:43:50;;;;;;;23.73;13.73;;;2.30;73.60;;;;;;4157335;28;20710;-64
2021/03/10 07:45:51;;;;;;;29.23;14.80;;;2.30;73.80;;;;;;4158469;28;20294;-64
2021/03/10 07:47:54;;;;;;;23.87;11.23;;;2.40;73.20;;;;;;4157105;28;20279;-63
2021/03/10 07:50:00;;;;;;;30.93;14.07;;;2.40;72.70;;;;;;4157905;28;20643;-63
2021/03/10 07:52:11;;;;;;;21.63;10.43;;;2.40;72.90;;;;;;4155167;28;20365;-63
2021/03/10 07:54:16;;;;;;;19.17;9.45;;;2.60;73.20;;;;;;4157203;28;20275;-66
2021/03/10 07:56:28;;;;;;;22.13;10.33;;;2.70;72.30;;;;;;4156912;28;20021;-62
2021/03/10 07:58:30;;;;;;;17.17;9.60;;;2.90;71.90;;;;;;4158387;28;20839;-63
2021/03/10 08:00:36;;;;;;;26.33;12.40;;;3.10;71.60;;;;;;4157204;28;20267;-64
2021/03/10 08:02:43;;;;;;;22.43;10.80;;;3.30;71.30;;;;;;4158153;28;20263;-63
2021/03/10 08:05:00;;;;;;;20.77;8.80;;;3.50;70.50;;;;;;4157046;28;20270;-66
2021/03/10 08:07:01;;;;;;;18.73;9.60;;;3.80;69.50;;;;;;4158213;28;20352;-64
2021/03/10 08:09:04;;;;;;;18.37;8.93;;;4.10;68.60;;;;;;4156109;28;20321;-63
2021/03/10 08:11:16;;;;;;;18.80;9.90;;;4.10;68.20;;;;;;4157881;28;20348;-63
2021/03/10 08:13:21;;;;;;;17.87;9.20;;;4.30;67.90;;;;;;4156518;28;20337;-60
2021/03/10 08:15:23;;;;;;;19.23;9.57;;;4.50;67.00;;;;;;4157350;28;20309;-63
2021/03/10 08:17:26;;;;;;;16.83;8.67;;;5.00;66.80;;;;;;4156584;28;20255;-62
2021/03/10 08:19:27;;;;;;;21.33;8.80;;;5.40;66.00;;;;;;4157597;28;20317;-62
2021/03/10 08:21:29;;;;;;;18.27;7.60;;;5.70;64.20;;;;;;4156671;28;20313;-63
2021/03/10 08:23:30;;;;;;;13.57;6.83;;;5.90;63.50;;;;;;4156222;28;20324;-62
2021/03/10 08:25:33;;;;;;;14.07;7.57;;;5.70;62.70;;;;;;4156530;28;20828;-62
2021/03/10 08:27:40;;;;;;;12.10;7.40;;;5.80;62.60;;;;;;4155950;28;20279;-64
2021/03/10 08:29:48;;;;;;;17.17;8.80;;;6.00;61.90;;;;;;4156806;28;20317;-63
2021/03/10 08:31:55;;;;;;;18.60;9.10;;;6.20;60.90;;;;;;4155375;28;20294;-63
2021/03/10 08:33:56;;;;;;;18.43;9.13;;;6.40;61.50;;;;;;4157189;28;20275;-61
2021/03/10 08:35:58;;;;;;;15.60;8.03;;;6.40;60.70;;;;;;4156355;28;20279;-61
2021/03/10 08:38:04;;;;;;;13.93;8.07;;;6.20;60.40;;;;;;4157613;28;20275;-62
2021/03/10 08:40:07;;;;;;;19.73;8.47;;;6.20;60.10;;;;;;4156051;28;20313;-62
2021/03/10 08:42:09;;;;;;;19.07;8.13;;;6.20;60.00;;;;;;4157445;28;20352;-62
2021/03/10 08:44:11;;;;;;;15.50;8.33;;;6.60;60.00;;;;;;4155773;28;20279;-63
2021/03/10 08:46:12;;;;;;;13.17;6.07;;;6.70;59.10;;;;;;4156586;28;20706;-62
2021/03/10 08:48:15;;;;;;;12.10;5.27;;;6.80;58.00;;;;;;4154976;28;20306;-62
2021/03/10 08:50:16;;;;;;;10.50;5.50;;;6.70;58.00;;;;;;4157071;28;20328;-62
2021/03/10 08:52:18;;;;;;;10.23;4.80;;;6.80;57.60;;;;;;4156585;28;20757;-62
2021/03/10 08:54:19;;;;;;;17.03;5.90;;;6.80;57.30;;;;;;4157454;28;20263;-62
2021/03/10 08:56:21;;;;;;;10.47;5.30;;;6.70;56.60;;;;;;4155767;28;20320;-64
2021/03/10 08:58:22;;;;;;;9.13;4.90;;;6.60;56.30;;;;;;4156170;28;21125;-66
2021/03/10 09:00:28;;;;;;;10.67;4.63;;;6.30;55.70;;;;;;4156095;28;20354;-65
2021/03/10 09:02:33;;;;;;;12.60;7.43;;;6.10;56.70;;;;;;4156734;28;20254;-64
2021/03/10 09:04:35;;;;;;;9.97;4.90;;;6.20;56.90;;;;;;4156210;28;20267;-66
2021/03/10 09:06:37;;;;;;;14.87;6.10;;;6.20;56.30;;;;;;4156341;28;20674;-66
2021/03/10 09:08:40;;;;;;;14.83;5.87;;;6.20;56.50;;;;;;4157008;28;20336;-64
2021/03/10 09:10:47;;;;;;;8.85;5.45;;;6.30;56.30;;;;;;4155334;28;20275;-62
2021/03/10 09:12:51;;;;;;;9.37;4.90;;;6.40;55.70;;;;;;4156971;28;20271;-63
2021/03/10 09:14:52;;;;;;;8.43;4.37;;;6.50;56.10;;;;;;4155000;28;20271;-62
2021/03/10 09:17:00;;;;;;;9.33;5.03;;;6.40;55.70;;;;;;4155719;28;20563;-63
2021/03/10 09:19:01;;;;;;;8.83;4.33;;;6.30;54.90;;;;;;4155202;28;20289;-62
2021/03/10 09:21:03;;;;;;;10.80;5.53;;;6.30;55.30;;;;;;4156825;28;20298;-66
2021/03/10 09:23:05;;;;;;;10.47;4.70;;;6.30;55.60;;;;;;4155076;28;20312;-63
2021/03/10 09:25:11;;;;;;;9.30;5.27;;;6.50;55.60;;;;;;4156768;28;20345;-62
2021/03/10 09:27:17;;;;;;;14.53;6.20;;;6.60;55.00;;;;;;4154386;28;20271;-64
2021/03/10 09:29:18;;;;;;;19.43;6.60;;;6.70;54.60;;;;;;4156515;28;20341;-62
2021/03/10 09:31:19;;;;;;;9.23;4.63;;;6.30;54.80;;;;;;4154941;28;20745;-63
2021/03/10 09:33:25;;;;;;;10.03;5.47;;;6.30;54.90;;;;;;4157091;28;20320;-62
2021/03/10 09:35:37;;;;;;;10.60;4.93;;;6.30;54.80;;;;;;4154967;28;20324;-62
2021/03/10 09:37:55;;;;;;;17.33;6.77;;;6.50;54.40;;;;;;4155983;28;20751;-62
2021/03/10 09:39:57;;;;;;;13.70;4.87;;;6.40;53.30;;;;;;4154755;28;20279;-63
2021/03/10 09:42:03;;;;;;;8.53;4.57;;;5.90;54.00;;;;;;4156676;28;20259;-63
2021/03/10 09:44:08;;;;;;;15.30;5.60;;;5.50;53.60;;;;;;4154593;28;20673;-65
2021/03/10 09:46:10;;;;;;;9.20;4.47;;;5.00;54.90;;;;;;4156595;28;20278;-63
2021/03/10 09:48:15;;;;;;;10.97;4.63;;;4.80;54.90;;;;;;4154084;28;20301;-66
2021/03/10 09:50:25;;;;;;;9.40;4.83;;;4.80;54.60;;;;;;4156758;28;20813;-64
2021/03/10 09:52:35;;;;;;;7.67;4.47;;;4.90;55.60;;;;;;4154753;28;20737;-62
2021/03/10 09:54:55;;;;;;;10.73;4.97;;;5.20;56.30;;;;;;4155902;28;20752;-65
2021/03/10 09:56:56;;;;;;;8.60;4.93;;;5.50;55.10;;;;;;4154810;28;20271;-62
2021/03/10 09:59:00;;;;;;;9.23;4.93;;;5.80;54.60;;;;;;4154492;28;20308;-62
2021/03/10 10:01:01;;;;;;;9.73;4.63;;;6.00;54.60;;;;;;4154300;28;20313;-63
2021/03/10 10:03:02;;;;;;;13.43;6.10;;;6.10;54.50;;;;;;4154815;28;20368;-62
2021/03/10 10:05:04;;;;;;;8.43;5.53;;;6.20;54.00;;;;;;4154259;28;20286;-62
2021/03/10 10:07:08;;;;;;;9.10;5.87;;;6.30;54.30;;;;;;4154024;28;20352;-63
2021/03/10 10:09:09;;;;;;;9.23;5.17;;;6.40;54.30;;;;;;4155549;28;20274;-62
2021/03/10 10:11:10;;;;;;;10.70;4.63;;;6.50;54.20;;;;;;4154823;28;20266;-65
2021/03/10 10:13:18;;;;;;;10.93;5.30;;;6.40;53.30;;;;;;4156537;28;20336;-66
2021/03/10 10:15:25;;;;;;;16.00;5.83;;;6.00;53.50;;;;;;4153996;28;20352;-62
2021/03/10 10:17:26;;;;;;;11.20;5.53;;;6.00;54.20;;;;;;4155788;28;20295;-64
2021/03/10 10:19:27;;;;;;;12.30;5.13;;;6.10;54.10;;;;;;4154599;28;20345;-62
2021/03/10 10:21:28;;;;;;;12.40;5.83;;;6.20;54.20;;;;;;4154674;28;20344;-63
2021/03/10 10:23:30;;;;;;;9.67;5.60;;;6.30;53.90;;;;;;4153656;28;20270;-61
2021/03/10 10:25:33;;;;;;;11.53;5.67;;;6.30;53.60;;;;;;4154961;28;20274;-66
2021/03/10 10:27:34;;;;;;;8.23;5.00;;;6.20;53.90;;;;;;4154273;28;20337;-62
2021/03/10 10:29:35;;;;;;;8.67;4.80;;;6.10;53.60;;;;;;4154516;28;21119;-62
2021/03/10 10:31:36;;;;;;;14.83;7.53;;;5.80;52.90;;;;;;4154077;28;20279;-62
2021/03/10 10:33:37;;;;;;;16.73;6.60;;;5.50;53.50;;;;;;4155366;28;20324;-62